Time;durP1;ratioP1;P1;durP2;ratioP2;P2;SDS_P1;SDS_P2;PMS_P1;PMS_P2;Temp;Humidity;BMP_temperature;BMP_pressure;BME280_temperature;BME280_humidity;BME280_pressure;Samples;Min_cycle;Max_cycle;Signal;HPM_P1;HPM_P2
2022/12/02 00:00:23;;;;;;;53.40;24.73;;;;;;;3.71;100.00;102526.69;5071839;28;20098;-58
2022/12/02 00:02:52;;;;;;;60.63;25.48;;;;;;;3.62;100.00;102526.78;5070659;28;20047;-58
2022/12/02 00:05:32;;;;;;;57.83;26.50;;;;;;;3.61;100.00;102525.03;5068107;28;20051;-58
2022/12/02 00:08:11;;;;;;;58.03;25.75;;;;;;;3.67;100.00;102522.41;5068087;28;20045;-58
2022/12/02 00:10:39;;;;;;;56.35;24.67;;;;;;;3.66;100.00;102526.72;5071959;28;20102;-57
2022/12/02 00:13:15;;;;;;;52.47;25.88;;;;;;;3.68;100.00;102522.38;5071917;28;20052;-57
2022/12/02 00:15:47;;;;;;;56.72;26.95;;;;;;;3.69;100.00;102515.44;5071822;28;20045;-58
2022/12/02 00:18:16;;;;;;;57.47;27.30;;;;;;;3.68;100.00;102518.91;5068970;28;20052;-58
2022/12/02 00:20:45;;;;;;;55.75;26.35;;;;;;;3.57;100.00;102510.34;5068142;28;20051;-58
2022/12/02 00:23:13;;;;;;;57.28;27.02;;;;;;;3.71;100.00;102513.69;5072022;28;20064;-58
2022/12/02 00:25:46;;;;;;;55.65;25.65;;;;;;;3.70;100.00;102509.34;5071745;28;20119;-58
2022/12/02 00:28:16;;;;;;;57.88;27.13;;;;;;;3.60;100.00;102508.59;5071708;28;20044;-58
2022/12/02 00:30:45;;;;;;;58.03;26.10;;;;;;;3.58;100.00;102512.94;5074643;28;20056;-58
2022/12/02 00:33:14;;;;;;;57.25;27.70;;;;;;;3.58;100.00;102514.69;5075309;28;20182;-58
2022/12/02 00:35:42;;;;;;;53.03;24.95;;;;;;;3.62;100.00;102511.16;5075281;28;20044;-58
2022/12/02 00:38:10;;;;;;;58.95;26.88;;;;;;;3.67;100.00;102514.59;5075180;28;20053;-58
2022/12/02 00:40:38;;;;;;;56.38;25.25;;;;;;;3.64;100.00;102510.28;5075139;28;20040;-58
2022/12/02 00:48:40;;;;;;;55.90;26.27;;;;;;;3.62;100.00;102505.97;5074837;28;20135;-58
2022/12/02 00:51:08;;;;;;;55.00;25.83;;;;;;;3.42;100.00;102496.59;5074307;28;20502;-58
2022/12/02 00:53:36;;;;;;;53.92;26.40;;;;;;;3.53;100.00;102501.69;5074598;28;20857;-58
2022/12/02 00:56:04;;;;;;;53.72;25.55;;;;;;;3.57;100.00;102498.19;5074600;28;20098;-58
2022/12/02 00:58:33;;;;;;;52.72;24.25;;;;;;;3.59;100.00;102493.84;5070808;28;20045;-58
2022/12/02 01:01:02;;;;;;;53.67;25.45;;;;;;;3.60;100.00;102486.88;5069681;28;20441;-58
2022/12/02 01:03:30;;;;;;;56.30;25.75;;;;;;;3.48;100.00;102488.75;5072444;28;20553;-58
2022/12/02 01:05:59;;;;;;;61.03;26.58;;;;;;;3.50;100.00;102486.97;5074549;28;20044;-58
2022/12/02 01:08:27;;;;;;;57.13;27.65;;;;;;;3.47;100.00;102484.41;5071772;28;20123;-58
2022/12/02 01:10:56;;;;;;;53.65;25.73;;;;;;;3.57;100.00;102486.94;5070778;28;20076;-58
2022/12/02 01:13:26;;;;;;;53.22;25.05;;;;;;;3.57;100.00;102477.38;5072104;28;20515;-58
2022/12/02 01:15:55;;;;;;;56.08;25.60;;;;;;;3.53;100.00;102471.34;5074435;28;20036;-58
2022/12/02 01:18:24;;;;;;;54.80;24.75;;;;;;;3.53;100.00;102467.88;5074359;28;20135;-58
2022/12/02 01:20:52;;;;;;;56.50;24.98;;;;;;;3.49;100.00;102474.84;5074267;28;20049;-59
2022/12/02 01:23:21;;;;;;;62.03;26.85;;;;;;;3.48;100.00;102477.47;5074431;28;20060;-58
2022/12/02 01:25:49;;;;;;;55.13;24.42;;;;;;;3.40;100.00;102479.28;5073028;28;20082;-58
2022/12/02 01:28:18;;;;;;;55.25;25.25;;;;;;;3.38;100.00;102474.97;5070644;28;20052;-58
2022/12/02 01:30:46;;;;;;;56.95;25.23;;;;;;;3.34;100.00;102486.25;5072095;28;20060;-58
2022/12/02 01:33:15;;;;;;;57.42;25.38;;;;;;;3.39;100.00;102488.81;5073562;28;20098;-58
2022/12/02 01:35:44;;;;;;;51.30;23.55;;;;;;;3.45;100.00;102482.69;5073991;28;20068;-58
2022/12/02 01:38:13;;;;;;;47.83;23.25;;;;;;;3.39;100.00;102486.22;5073396;28;20041;-58
2022/12/02 01:40:42;;;;;;;56.47;24.38;;;;;;;3.38;100.00;102482.75;5070291;28;20570;-58
2022/12/02 01:43:10;;;;;;;57.33;24.73;;;;;;;3.42;100.00;102478.38;5069390;28;20057;-57
2022/12/02 01:45:39;;;;;;;52.17;24.60;;;;;;;3.35;100.00;102477.59;5067018;28;20044;-58
2022/12/02 01:48:07;;;;;;;52.53;22.67;;;;;;;3.34;100.00;102469.78;5070284;28;20052;-58
2022/12/02 01:50:36;;;;;;;49.25;22.30;;;;;;;3.27;100.00;102465.50;5073822;28;20043;-58
2022/12/02 01:53:05;;;;;;;61.70;24.83;;;;;;;3.32;100.00;102468.94;5073307;28;20064;-58
2022/12/02 01:55:34;;;;;;;53.90;23.80;;;;;;;3.29;100.00;102466.38;5073265;28;20067;-58
2022/12/02 01:58:02;;;;;;;55.35;24.25;;;;;;;3.34;100.00;102472.38;5073130;28;20041;-52
2022/12/02 02:00:30;;;;;;;56.25;22.95;;;;;;;3.29;100.00;102474.19;5073148;28;20044;-50
2022/12/02 02:02:59;;;;;;;55.95;24.13;;;;;;;3.20;100.00;102470.78;5073261;28;20044;-51
2022/12/02 02:05:29;;;;;;;59.95;25.58;;;;;;;3.20;100.00;102475.97;5073209;28;20094;-51
2022/12/02 02:08:02;;;;;;;59.20;24.02;;;;;;;3.10;100.00;102484.72;5071759;28;20053;-58
2022/12/02 02:10:31;;;;;;;;;;;;;;;3.19;100.00;102482.06;5073493;28;20048;-52
2022/12/02 02:13:00;;;;;;;53.90;22.38;;;;;;;3.33;100.00;102476.72;5072718;28;19920;-53
2022/12/02 02:15:29;;;;;;;50.25;22.77;;;;;;;3.26;100.00;102472.47;5072773;28;20044;-52
2022/12/02 02:17:59;;;;;;;54.85;21.88;;;;;;;3.21;100.00;102469.03;5073115;28;20087;-52
2022/12/02 02:20:33;;;;;;;51.83;21.85;;;;;;;3.15;100.00;102480.34;5071848;28;20049;-52
2022/12/02 02:23:22;;;;;;;52.20;21.10;;;;;;;3.25;100.00;102472.47;5073153;28;20049;-50
2022/12/02 02:25:53;;;;;;;47.00;20.02;;;;;;;3.24;100.00;102468.16;5073570;28;20046;-52
2022/12/02 02:28:23;;;;;;;51.03;22.53;;;;;;;3.14;100.00;102480.38;5073254;28;20483;-52
2022/12/02 02:30:53;;;;;;;50.33;20.67;;;;;;;3.10;100.00;102473.47;5072765;28;20060;-53
2022/12/02 02:33:23;;;;;;;49.78;20.67;;;;;;;3.01;100.00;102479.59;5073390;28;20139;-53
2022/12/02 02:35:52;;;;;;;48.35;21.15;;;;;;;2.98;100.00;102483.06;5072965;28;20526;-53
2022/12/02 02:38:24;;;;;;;40.05;17.55;;;;;;;2.92;100.00;102475.31;5072941;28;20084;-58
2022/12/02 02:40:53;;;;;;;48.95;20.25;;;;;;;2.88;100.00;102471.88;5072761;28;20048;-58
2022/12/02 02:43:24;;;;;;;44.47;17.80;;;;;;;2.87;100.00;102462.34;5071122;28;20068;-58
2022/12/02 02:45:54;;;;;;;51.15;19.60;;;;;;;2.99;100.00;102453.59;5066762;28;20048;-57
2022/12/02 02:48:23;;;;;;;47.35;18.48;;;;;;;3.05;100.00;102457.88;5069201;28;20036;-58
2022/12/02 02:50:51;;;;;;;40.63;16.40;;;;;;;3.03;100.00;102457.06;5072754;28;20052;-58
2022/12/02 02:53:25;;;;;;;34.50;16.20;;;;;;;3.09;100.00;102451.78;5071698;28;20109;-58
2022/12/02 02:55:54;;;;;;;43.13;16.80;;;;;;;3.06;100.00;102446.63;5068767;28;20052;-58
2022/12/02 02:58:24;;;;;;;39.92;16.58;;;;;;;3.01;100.00;102440.59;5071277;28;20492;-58
2022/12/02 03:00:57;;;;;;;42.67;16.88;;;;;;;2.91;100.00;102442.41;5072464;28;20052;-58
2022/12/02 03:03:29;;;;;;;40.92;16.95;;;;;;;3.05;100.00;102442.28;5071822;28;20102;-58
2022/12/02 03:05:58;;;;;;;37.05;15.88;;;;;;;3.02;100.00;102437.97;5069290;28;20044;-58
2022/12/02 03:08:31;;;;;;;36.00;15.98;;;;;;;3.03;100.00;102433.66;5068527;28;20399;-57
2022/12/02 03:11:01;;;;;;;36.78;16.30;;;;;;;2.96;100.00;102440.63;5070268;28;20399;-58
2022/12/02 03:13:31;;;;;;;39.83;16.75;;;;;;;3.04;100.00;102440.56;5072372;28;20071;-57
2022/12/02 03:16:01;;;;;;;37.00;15.80;;;;;;;3.00;100.00;102429.34;5072349;28;20542;-58
2022/12/02 03:18:31;;;;;;;37.38;16.35;;;;;;;3.06;100.00;102428.44;5072402;28;20044;-57
2022/12/02 03:20:59;;;;;;;37.25;15.98;;;;;;;3.13;100.00;102424.03;5072294;28;20399;-58
2022/12/02 03:23:31;;;;;;;38.95;17.10;;;;;;;2.99;100.00;102416.38;5072412;28;20426;-58
2022/12/02 03:26:00;;;;;;;36.23;16.60;;;;;;;3.01;100.00;102412.00;5068846;28;20098;-53
2022/12/02 03:28:28;;;;;;;37.47;16.02;;;;;;;3.13;100.00;102414.50;5068331;28;20052;-52
2022/12/02 03:30:57;;;;;;;37.97;16.60;;;;;;;3.04;100.00;102419.75;5067058;28;20576;-52
2022/12/02 03:33:26;;;;;;;40.35;17.02;;;;;;;3.14;100.00;102421.41;5069882;28;20078;-51
2022/12/02 03:35:54;;;;;;;39.45;16.77;;;;;;;3.04;100.00;102411.97;5071804;28;20070;-53
2022/12/02 03:38:22;;;;;;;38.53;16.65;;;;;;;2.99;100.00;102413.75;5072031;28;20049;-54
2022/12/02 03:40:52;;;;;;;41.40;17.45;;;;;;;2.86;100.00;102421.66;5071897;28;20718;-52
2022/12/02 03:43:21;;;;;;;42.33;16.90;;;;;;;2.94;100.00;102420.72;5072726;28;20053;-52
2022/12/02 03:45:49;;;;;;;36.92;15.50;;;;;;;3.03;100.00;102418.06;5070350;28;20097;-53
2022/12/02 03:48:20;;;;;;;37.20;16.50;;;;;;;2.88;100.00;102422.50;5068386;28;20554;-50
2022/12/02 03:50:51;;;;;;;43.35;16.90;;;;;;;2.91;100.00;102419.00;5069367;28;20495;-53
2022/12/02 03:53:21;;;;;;;40.45;17.35;;;;;;;2.89;100.00;102420.78;5071919;28;20053;-52
2022/12/02 03:55:53;;;;;;;46.00;18.07;;;;;;;2.91;100.00;102415.56;5073157;28;20072;-50
2022/12/02 03:58:33;;;;;;;41.55;18.13;;;;;;;2.78;100.00;102413.06;5075807;28;20808;-47
2022/12/02 04:01:02;;;;;;;42.28;17.38;;;;;;;2.94;100.00;102415.53;5075867;28;20044;-48
2022/12/02 04:03:30;;;;;;;41.15;17.55;;;;;;;2.90;100.00;102416.44;5071604;28;20048;-49
2022/12/02 04:05:58;;;;;;;41.88;17.52;;;;;;;2.92;100.00;102406.88;5072988;28;20048;-51
2022/12/02 04:08:26;;;;;;;45.33;18.13;;;;;;;2.86;100.00;102406.06;5075994;28;20522;-47
2022/12/02 04:10:58;;;;;;;50.45;17.98;;;;;;;2.82;100.00;102401.78;5075637;28;20103;-49
2022/12/02 04:13:27;;;;;;;40.15;17.75;;;;;;;2.78;100.00;102397.47;5075713;28;20114;-52
2022/12/02 04:15:55;;;;;;;43.83;17.67;;;;;;;2.84;100.00;102391.34;5075766;28;20526;-51
2022/12/02 04:18:24;;;;;;;44.95;18.38;;;;;;;2.83;100.00;102387.88;5075803;28;20032;-47
2022/12/02 04:20:52;;;;;;;45.08;19.00;;;;;;;2.80;100.00;102394.84;5075779;28;20040;-50
2022/12/02 04:23:20;;;;;;;44.00;17.60;;;;;;;2.76;100.00;102393.16;5075639;28;20513;-50
2022/12/02 04:25:48;;;;;;;42.58;17.58;;;;;;;2.69;100.00;102388.00;5075448;28;20124;-49
2022/12/02 04:28:20;;;;;;;46.10;18.88;;;;;;;2.75;100.00;102391.44;5075395;28;20037;-50
2022/12/02 04:30:48;;;;;;;42.13;18.35;;;;;;;2.69;100.00;102394.94;5070000;28;20056;-47
2022/12/02 04:33:16;;;;;;;41.35;18.65;;;;;;;2.75;100.00;102392.28;5072393;28;20072;-49
2022/12/02 04:35:45;;;;;;;43.92;16.15;;;;;;;2.75;100.00;102387.06;5075292;28;20475;-48
2022/12/02 04:38:13;;;;;;;42.45;17.38;;;;;;;2.81;100.00;102387.03;5075329;28;20426;-50
2022/12/02 04:40:41;;;;;;;41.00;16.48;;;;;;;2.88;100.00;102380.91;5075228;28;20070;-49
2022/12/02 04:43:09;;;;;;;40.58;15.73;;;;;;;2.85;100.00;102378.34;5075096;28;20040;-52
2022/12/02 04:45:39;;;;;;;37.47;16.52;;;;;;;2.80;100.00;102380.13;5074453;28;20479;-54
2022/12/02 04:48:07;;;;;;;36.63;15.32;;;;;;;2.77;100.00;102382.75;5071854;28;20040;-52
2022/12/02 04:50:35;;;;;;;34.47;15.43;;;;;;;2.84;100.00;102381.81;5072710;28;20518;-52
2022/12/02 04:53:03;;;;;;;38.67;16.67;;;;;;;2.75;100.00;102387.06;5074749;28;20036;-49
2022/12/02 04:55:31;;;;;;;39.55;14.73;;;;;;;2.81;100.00;102386.16;5074863;28;20117;-47
2022/12/02 04:58:00;;;;;;;33.20;14.65;;;;;;;2.78;100.00;102381.88;5074437;28;20044;-49
2022/12/02 05:00:28;;;;;;;33.85;14.48;;;;;;;2.84;100.00;102379.22;5074429;28;20518;-52
2022/12/02 05:02:58;;;;;;;31.63;12.73;;;;;;;2.82;100.00;102370.59;5075244;28;20049;-50
2022/12/02 05:05:26;;;;;;;34.90;14.00;;;;;;;2.80;100.00;102368.88;5074729;28;20050;-50
2022/12/02 05:07:54;;;;;;;31.25;14.57;;;;;;;2.83;100.00;102361.88;5072380;28;20553;-50
2022/12/02 05:10:22;;;;;;;33.97;14.63;;;;;;;2.81;100.00;102362.78;5074541;28;20064;-48
2022/12/02 05:12:50;;;;;;;33.60;14.30;;;;;;;2.81;100.00;102362.78;5074640;28;20434;-52
2022/12/02 05:15:19;;;;;;;32.83;14.55;;;;;;;2.81;100.00;102349.78;5071528;28;20076;-50
2022/12/02 05:17:47;;;;;;;35.28;14.68;;;;;;;2.75;100.00;102347.25;5071433;28;20123;-52
2022/12/02 05:20:17;;;;;;;33.63;14.77;;;;;;;2.82;100.00;102359.31;5073008;28;20128;-51
2022/12/02 05:22:45;;;;;;;33.55;14.48;;;;;;;2.75;100.00;102362.84;5074398;28;20053;-50
2022/12/02 05:25:13;;;;;;;36.40;13.63;;;;;;;2.65;100.00;102364.66;5074341;28;20090;-48
2022/12/02 05:27:43;;;;;;;32.72;14.85;;;;;;;2.56;100.00;102362.97;5074412;28;20048;-50
2022/12/02 05:30:12;;;;;;;32.55;15.20;;;;;;;2.59;100.00;102359.50;5070327;28;20060;-49
2022/12/02 05:32:40;;;;;;;34.80;13.48;;;;;;;2.62;100.00;102362.06;5071298;28;20067;-48
2022/12/02 05:35:10;;;;;;;30.70;13.75;;;;;;;2.68;100.00;102360.28;5073085;28;20391;-48
2022/12/02 05:37:39;;;;;;;29.67;13.35;;;;;;;2.64;100.00;102361.19;5072880;28;20110;-51
2022/12/02 05:40:09;;;;;;;32.83;15.27;;;;;;;2.69;100.00;102367.22;5074287;28;20446;-50
2022/12/02 05:42:37;;;;;;;35.92;14.63;;;;;;;2.62;100.00;102364.66;5074052;28;20045;-48
2022/12/02 05:45:14;;;;;;;34.00;14.68;;;;;;;2.61;100.00;102356.00;5068651;28;20060;-50
2022/12/02 05:47:43;;;;;;;33.22;13.88;;;;;;;2.56;100.00;102356.94;5070659;28;20047;-50
2022/12/02 05:50:13;;;;;;;35.97;15.30;;;;;;;2.51;100.00;102351.78;5074050;28;20490;-49
2022/12/02 05:52:43;;;;;;;33.00;14.85;;;;;;;2.44;100.00;102348.38;5073745;28;20044;-52
2022/12/02 05:55:15;;;;;;;37.53;16.00;;;;;;;2.52;100.00;102351.75;5073801;28;20036;-53
2022/12/02 05:57:44;;;;;;;32.60;14.33;;;;;;;2.57;100.00;102345.66;5072569;28;20506;-50
2022/12/02 06:00:16;;;;;;;31.52;15.70;;;;;;;2.52;100.00;102351.75;5073579;28;20094;-51
2022/12/02 06:02:46;;;;;;;;;;;;;;;2.54;100.00;102347.41;5074412;28;20098;-50
2022/12/02 06:05:20;;;;;;;35.60;15.65;;;;;;;2.43;100.00;102349.22;5073550;28;19974;-48
2022/12/02 06:07:53;;;;;;;40.00;16.60;;;;;;;2.44;100.00;102343.16;5073316;28;20052;-52
2022/12/02 06:10:27;;;;;;;32.55;15.50;;;;;;;2.49;100.00;102345.72;5073483;28;20047;-51
2022/12/02 06:12:59;;;;;;;35.75;16.30;;;;;;;2.51;100.00;102347.44;5070338;28;20044;-51
2022/12/02 06:15:34;;;;;;;38.45;17.15;;;;;;;2.37;100.00;102346.66;5068677;28;20047;-51
2022/12/02 06:18:03;;;;;;;42.80;17.45;;;;;;;2.40;100.00;102338.88;5073278;28;20037;-50
2022/12/02 06:20:34;;;;;;;35.33;15.45;;;;;;;2.30;100.00;102347.56;5071868;28;20052;-52
2022/12/02 06:23:03;;;;;;;38.17;16.83;;;;;;;2.23;100.00;102349.34;5073345;28;20048;-52
2022/12/02 06:25:32;;;;;;;34.85;16.13;;;;;;;2.24;100.00;102352.81;5073100;28;20054;-51
2022/12/02 06:28:11;;;;;;;35.78;16.00;;;;;;;2.29;100.00;102354.50;5072602;28;20502;-51
2022/12/02 06:30:40;;;;;;;32.67;14.38;;;;;;;2.37;100.00;102349.25;5072862;28;20530;-52
2022/12/02 06:33:22;;;;;;;34.45;14.80;;;;;;;2.37;100.00;102349.25;5072919;28;20134;-52
2022/12/02 06:35:50;;;;;;;32.92;14.57;;;;;;;2.32;100.00;102348.44;5072806;28;20429;-52
2022/12/02 06:38:28;;;;;;;33.10;15.05;;;;;;;2.34;100.00;102347.53;5073129;28;20068;-52
2022/12/02 06:40:56;;;;;;;35.42;15.73;;;;;;;2.36;100.00;102347.56;5072962;28;20052;-53
2022/12/02 06:43:29;;;;;;;35.60;15.32;;;;;;;2.29;100.00;102356.22;5072835;28;20442;-50
2022/12/02 06:45:57;;;;;;;;;;;;;;;2.37;100.00;102354.44;5073204;28;20037;-51
2022/12/02 06:48:28;;;;;;;32.92;14.98;;;;;;;2.40;100.00;102351.84;5071444;28;19953;-48
2022/12/02 06:51:00;;;;;;;37.85;17.35;;;;;;;2.33;100.00;102355.34;5072078;28;20055;-52
2022/12/02 06:53:35;;;;;;;36.55;16.00;;;;;;;2.32;100.00;102356.22;5072476;28;20438;-50
2022/12/02 06:56:14;;;;;;;35.45;16.77;;;;;;;2.27;100.00;102358.00;5072698;28;20068;-51
2022/12/02 06:58:46;;;;;;;33.15;15.45;;;;;;;2.22;100.00;102360.59;5072606;28;20071;-50
2022/12/02 07:01:24;;;;;;;40.65;17.40;;;;;;;2.22;100.00;102354.56;5071016;28;20049;-49
2022/12/02 07:04:33;;;;;;;38.50;17.08;;;;;;;2.23;100.00;102361.47;5072472;28;20522;-50
2022/12/02 07:07:13;;;;;;;36.60;16.55;;;;;;;2.20;100.00;102358.00;5072574;28;20113;-52
2022/12/02 07:09:46;;;;;;;36.20;15.82;;;;;;;2.24;100.00;102363.22;5072481;28;20036;-49
2022/12/02 07:12:18;;;;;;;39.58;16.40;;;;;;;2.23;100.00;102356.28;5072252;28;20549;-50
2022/12/02 07:14:49;;;;;;;36.40;16.17;;;;;;;2.13;100.00;102365.88;5072581;28;20495;-51
2022/12/02 07:17:26;;;;;;;37.45;16.95;;;;;;;2.13;100.00;102366.72;5072455;28;20045;-48
2022/12/02 07:19:59;;;;;;;35.00;16.00;;;;;;;2.19;100.00;102364.06;5072637;28;21144;-50
2022/12/02 07:22:33;;;;;;;37.75;15.68;;;;;;;2.14;100.00;102373.66;5072314;28;20440;-51
2022/12/02 07:25:29;;;;;;;38.70;17.20;;;;;;;2.14;100.00;102370.16;5072403;28;20045;-49
2022/12/02 07:27:58;;;;;;;38.95;17.35;;;;;;;2.08;100.00;102375.41;5072069;28;20057;-49
2022/12/02 07:30:30;;;;;;;39.03;17.05;;;;;;;2.07;100.00;102369.34;5071756;28;20053;-52
2022/12/02 07:32:58;;;;;;;38.90;15.73;;;;;;;2.07;100.00;102376.25;5071044;28;20079;-53
2022/12/02 07:35:27;;;;;;;36.72;16.00;;;;;;;2.09;100.00;102372.78;5067718;28;20059;-57
2022/12/02 07:37:56;;;;;;;38.55;15.65;;;;;;;2.03;100.00;102370.22;5071601;28;20049;-56
2022/12/02 07:40:26;;;;;;;38.83;16.92;;;;;;;2.06;100.00;102366.75;5067651;28;20054;-57
2022/12/02 07:42:54;;;;;;;36.08;16.95;;;;;;;2.10;100.00;102371.94;5068413;28;20119;-57
2022/12/02 07:45:22;;;;;;;36.25;15.95;;;;;;;2.08;100.00;102373.66;5065630;28;20075;-57
2022/12/02 07:47:50;;;;;;;42.30;18.08;;;;;;;2.13;100.00;102384.03;5068685;28;20466;-57
2022/12/02 07:50:18;;;;;;;37.17;15.57;;;;;;;2.06;100.00;102377.13;5067911;28;20041;-57
2022/12/02 07:52:47;;;;;;;40.47;16.67;;;;;;;2.06;100.00;102374.53;5068330;28;20048;-57
2022/12/02 07:55:16;;;;;;;35.53;14.65;;;;;;;2.08;100.00;102368.47;5067800;28;20076;-57
2022/12/02 07:57:54;;;;;;;41.97;15.63;;;;;;;1.94;100.00;102373.72;5070154;28;20049;-56
2022/12/02 08:00:24;;;;;;;41.45;16.58;;;;;;;1.97;100.00;102371.13;5067704;28;20041;-56
2022/12/02 08:02:54;;;;;;;39.35;15.63;;;;;;;2.02;100.00;102365.91;5069055;28;20045;-56
2022/12/02 08:05:23;;;;;;;38.92;16.05;;;;;;;2.03;100.00;102370.22;5067680;28;20146;-57
2022/12/02 08:07:51;;;;;;;43.70;16.02;;;;;;;2.08;100.00;102376.25;5068487;28;20605;-57
2022/12/02 08:10:20;;;;;;;42.25;16.73;;;;;;;1.97;100.00;102378.91;5067521;28;20051;-57
2022/12/02 08:12:48;;;;;;;46.03;17.33;;;;;;;2.00;100.00;102380.63;5068942;28;20040;-57
2022/12/02 08:15:18;;;;;;;40.13;15.35;;;;;;;1.88;100.00;102367.72;5066090;28;20451;-57
2022/12/02 08:17:46;;;;;;;45.28;16.50;;;;;;;1.91;100.00;102376.34;5068701;28;20175;-57
2022/12/02 08:20:14;;;;;;;46.85;17.60;;;;;;;1.95;100.00;102367.69;5067064;28;20060;-57
2022/12/02 08:22:42;;;;;;;46.08;18.98;;;;;;;1.95;100.00;102369.41;5068108;28;20466;-57
2022/12/02 08:25:11;;;;;;;46.75;16.98;;;;;;;1.93;100.00;102369.41;5068005;28;20065;-56
2022/12/02 08:27:39;;;;;;;47.28;18.33;;;;;;;1.95;100.00;102374.59;5068624;28;20044;-56
2022/12/02 08:30:16;;;;;;;48.38;17.08;;;;;;;2.01;100.00;102379.75;5065577;28;20057;-58
2022/12/02 08:32:45;;;;;;;53.55;17.92;;;;;;;1.99;100.00;102374.59;5071177;28;20139;-57
2022/12/02 08:35:14;;;;;;;47.95;17.77;;;;;;;2.03;100.00;102378.00;5070766;28;20051;-57
2022/12/02 08:37:42;;;;;;;47.22;17.23;;;;;;;2.08;100.00;102375.41;5068225;28;20045;-48
2022/12/02 08:40:11;;;;;;;52.63;18.13;;;;;;;2.08;100.00;102373.66;5069659;28;20048;-49
2022/12/02 08:42:41;;;;;;;50.40;18.92;;;;;;;1.98;100.00;102377.19;5071566;28;20094;-52
2022/12/02 08:45:09;;;;;;;48.22;18.20;;;;;;;2.03;100.00;102380.59;5075088;28;20102;-51
2022/12/02 08:47:38;;;;;;;47.30;17.92;;;;;;;2.00;100.00;102380.63;5075057;28;20407;-49
2022/12/02 08:50:09;;;;;;;50.47;17.55;;;;;;;2.17;100.00;102373.63;5074948;28;20063;-49
2022/12/02 08:52:38;;;;;;;48.00;18.48;;;;;;;2.07;100.00;102377.13;5075182;28;20526;-52
2022/12/02 08:55:06;;;;;;;47.95;18.58;;;;;;;2.05;100.00;102368.50;5075149;28;20569;-49
2022/12/02 08:57:35;;;;;;;49.95;18.67;;;;;;;2.02;100.00;102368.53;5075353;28;20499;-50
2022/12/02 09:00:04;;;;;;;47.20;17.38;;;;;;;2.03;100.00;102368.50;5075021;28;20045;-48
2022/12/02 09:02:33;;;;;;;48.78;17.75;;;;;;;2.03;100.00;102373.69;5075098;28;20056;-49
2022/12/02 09:05:01;;;;;;;51.90;18.00;;;;;;;2.05;100.00;102368.50;5073580;28;20052;-50
2022/12/02 09:07:30;;;;;;;48.30;18.67;;;;;;;2.10;100.00;102371.94;5074903;28;20037;-53
2022/12/02 09:09:59;;;;;;;46.58;17.88;;;;;;;2.16;100.00;102379.66;5074096;28;20459;-50
2022/12/02 09:12:27;;;;;;;45.83;17.73;;;;;;;2.11;100.00;102372.78;5073367;28;20048;-50
2022/12/02 09:14:55;;;;;;;53.55;20.75;;;;;;;2.12;100.00;102375.38;5073376;28;20452;-50
2022/12/02 09:17:24;;;;;;;45.70;17.88;;;;;;;2.19;100.00;102369.25;5074603;28;20041;-52
2022/12/02 09:19:52;;;;;;;48.00;17.75;;;;;;;2.18;100.00;102375.34;5074672;28;20047;-51
2022/12/02 09:22:22;;;;;;;44.50;16.85;;;;;;;2.17;100.00;102368.44;5074156;28;20067;-51
2022/12/02 09:24:51;;;;;;;47.88;18.33;;;;;;;2.20;100.00;102372.75;5070507;28;20056;-52
2022/12/02 09:27:20;;;;;;;52.00;17.20;;;;;;;2.15;100.00;102370.16;5072123;28;20059;-52
2022/12/02 09:29:48;;;;;;;47.47;17.15;;;;;;;2.20;100.00;102372.75;5074380;28;20052;-50
2022/12/02 09:32:16;;;;;;;45.15;18.05;;;;;;;2.19;100.00;102366.66;5073973;28;20080;-51
2022/12/02 09:34:44;;;;;;;46.28;17.88;;;;;;;2.19;100.00;102374.44;5071227;28;20055;-52
2022/12/02 09:37:12;;;;;;;47.17;16.88;;;;;;;2.19;100.00;102371.84;5070741;28;20045;-52
2022/12/02 09:39:40;;;;;;;48.22;17.80;;;;;;;2.20;100.00;102373.59;5072620;28;20486;-50
2022/12/02 09:42:11;;;;;;;42.08;16.23;;;;;;;2.26;100.00;102359.72;5070817;28;20090;-51
2022/12/02 09:44:39;;;;;;;48.70;17.95;;;;;;;2.33;100.00;102365.72;5072472;28;20119;-51
2022/12/02 09:47:08;;;;;;;43.50;16.10;;;;;;;2.34;100.00;102370.06;5072890;28;20056;-56
2022/12/02 09:49:36;;;;;;;45.30;17.33;;;;;;;2.27;100.00;102364.03;5073805;28;20067;-57
2022/12/02 09:52:07;;;;;;;48.50;16.73;;;;;;;2.30;100.00;102360.56;5073829;28;20499;-57
2022/12/02 09:54:35;;;;;;;37.97;15.23;;;;;;;2.37;100.00;102370.03;5073338;28;20056;-57
2022/12/02 09:57:11;;;;;;;43.13;17.08;;;;;;;2.25;100.00;102360.59;5073751;28;20109;-57
2022/12/02 09:59:39;;;;;;;43.75;16.40;;;;;;;2.28;100.00;102357.97;5069878;28;20059;-57
2022/12/02 10:02:20;;;;;;;41.72;15.68;;;;;;;2.33;100.00;102363.13;5070279;28;20052;-58
2022/12/02 10:04:48;;;;;;;45.58;19.02;;;;;;;2.34;100.00;102365.72;5072059;28;20053;-57
2022/12/02 10:07:17;;;;;;;39.35;16.17;;;;;;;2.21;100.00;102366.69;5069805;28;20052;-58
2022/12/02 10:09:45;;;;;;;45.47;16.90;;;;;;;2.32;100.00;102361.44;5071652;28;20049;-57
2022/12/02 10:12:15;;;;;;;46.75;16.27;;;;;;;2.36;100.00;102363.97;5072915;28;20062;-57
2022/12/02 10:14:48;;;;;;;42.05;16.60;;;;;;;2.37;100.00;102362.25;5068464;28;20060;-57
2022/12/02 10:17:18;;;;;;;40.85;15.80;;;;;;;2.45;100.00;102357.84;5069357;28;20075;-57
2022/12/02 10:19:47;;;;;;;46.75;15.65;;;;;;;2.43;100.00;102357.00;5070097;28;20064;-57
2022/12/02 10:22:17;;;;;;;39.20;14.77;;;;;;;2.41;100.00;102356.16;5072000;28;20438;-57
2022/12/02 10:24:46;;;;;;;40.10;15.18;;;;;;;2.49;100.00;102353.50;5072817;28;20032;-57
2022/12/02 10:27:26;;;;;;;37.78;15.60;;;;;;;2.53;100.00;102355.22;5069733;28;20098;-57
2022/12/02 10:30:13;;;;;;;40.90;16.27;;;;;;;2.42;100.00;102351.84;5063430;28;20045;-57
2022/12/02 10:32:42;;;;;;;44.22;15.70;;;;;;;2.45;100.00;102350.06;5069073;28;20114;-57
2022/12/02 10:35:11;;;;;;;38.10;14.15;;;;;;;2.45;100.00;102357.00;5069170;28;20044;-57
2022/12/02 10:37:39;;;;;;;38.05;13.70;;;;;;;2.53;100.00;102342.22;5069533;28;20040;-57
2022/12/02 10:40:13;;;;;;;38.40;14.10;;;;;;;2.52;100.00;102346.56;5069483;28;20048;-57
2022/12/02 10:42:43;;;;;;;43.75;14.07;;;;;;;2.52;100.00;102356.06;5069269;28;20048;-57
2022/12/02 10:45:18;;;;;;;37.13;15.25;;;;;;;2.41;100.00;102358.75;5066784;28;20141;-57
2022/12/02 10:47:46;;;;;;;45.80;15.73;;;;;;;2.28;100.00;102351.94;5063052;28;20082;-57
2022/12/02 10:50:23;;;;;;;43.50;14.73;;;;;;;2.36;100.00;102342.34;5068739;28;20048;-57
2022/12/02 10:52:53;;;;;;;43.72;15.00;;;;;;;2.33;100.00;102342.34;5069309;28;20380;-57
2022/12/02 10:55:22;;;;;;;38.88;14.50;;;;;;;2.31;100.00;102349.31;5068256;28;20489;-57
2022/12/02 10:57:51;;;;;;;42.53;13.98;;;;;;;2.35;100.00;102338.03;5068954;28;20037;-56
2022/12/02 11:00:22;;;;;;;45.50;14.98;;;;;;;2.34;100.00;102341.50;5066588;28;20041;-57
2022/12/02 11:02:55;;;;;;;48.88;16.33;;;;;;;2.30;100.00;102351.03;5068881;28;20044;-57
2022/12/02 11:05:25;;;;;;;46.10;16.05;;;;;;;2.45;100.00;102346.63;5067693;28;20705;-57
2022/12/02 11:07:56;;;;;;;42.55;14.32;;;;;;;2.36;100.00;102342.34;5069004;28;20052;-57
2022/12/02 11:10:26;;;;;;;46.08;14.98;;;;;;;2.30;100.00;102351.03;5067757;28;20046;-57
2022/12/02 11:13:03;;;;;;;38.25;13.32;;;;;;;2.29;100.00;102357.13;5068847;28;20048;-55
2022/12/02 11:15:43;;;;;;;38.17;14.30;;;;;;;2.17;100.00;102342.47;5066402;28;20105;-57
2022/12/02 11:18:33;;;;;;;50.47;16.48;;;;;;;2.16;100.00;102340.72;5068619;28;20394;-57
2022/12/02 11:21:31;;;;;;;35.17;13.70;;;;;;;2.23;100.00;102344.16;5068776;28;20056;-57
2022/12/02 11:24:32;;;;;;;37.08;14.63;;;;;;;2.28;100.00;102336.34;5052981;28;20129;-57
2022/12/02 11:27:09;;;;;;;43.60;14.52;;;;;;;2.26;100.00;102340.69;5068356;28;20105;-57
2022/12/02 11:30:36;;;;;;;44.83;14.43;;;;;;;2.31;100.00;102328.53;5058701;28;20102;-57